sensor_id;sensor_type;location;lat;lon;timestamp;P1;durP1;ratioP1;P2;durP2;ratioP2
63012;SDS011;62113;45.624;11.700;2023-02-15T00:01:22;89.45;;;46.58;;
63012;SDS011;62113;45.624;11.700;2023-02-15T00:03:48;88.72;;;48.25;;
63012;SDS011;62113;45.624;11.700;2023-02-15T00:06:14;94.63;;;48.67;;
63012;SDS011;62113;45.624;11.700;2023-02-15T00:08:40;88.80;;;45.70;;
63012;SDS011;62113;45.624;11.700;2023-02-15T00:11:15;96.07;;;48.88;;
63012;SDS011;62113;45.624;11.700;2023-02-15T00:18:54;92.57;;;45.03;;
63012;SDS011;62113;45.624;11.700;2023-02-15T00:21:20;97.47;;;48.70;;
63012;SDS011;62113;45.624;11.700;2023-02-15T00:23:45;89.47;;;46.40;;
63012;SDS011;62113;45.624;11.700;2023-02-15T00:26:11;88.10;;;44.45;;
63012;SDS011;62113;45.624;11.700;2023-02-15T00:28:37;97.07;;;43.67;;
63012;SDS011;62113;45.624;11.700;2023-02-15T00:33:33;82.03;;;44.05;;
63012;SDS011;62113;45.624;11.700;2023-02-15T00:35:59;81.00;;;41.38;;
63012;SDS011;62113;45.624;11.700;2023-02-15T00:38:26;82.50;;;42.88;;
63012;SDS011;62113;45.624;11.700;2023-02-15T00:40:56;88.72;;;48.05;;
63012;SDS011;62113;45.624;11.700;2023-02-15T00:43:24;97.88;;;52.67;;
63012;SDS011;62113;45.624;11.700;2023-02-15T00:45:50;96.13;;;51.83;;
63012;SDS011;62113;45.624;11.700;2023-02-15T00:48:16;94.35;;;46.55;;
63012;SDS011;62113;45.624;11.700;2023-02-15T00:50:44;83.03;;;43.10;;
63012;SDS011;62113;45.624;11.700;2023-02-15T00:53:11;80.53;;;42.33;;
63012;SDS011;62113;45.624;11.700;2023-02-15T00:55:36;88.45;;;43.28;;
63012;SDS011;62113;45.624;11.700;2023-02-15T00:58:02;83.32;;;42.53;;
63012;SDS011;62113;45.624;11.700;2023-02-15T01:00:27;80.88;;;41.80;;
63012;SDS011;62113;45.624;11.700;2023-02-15T01:02:53;80.43;;;43.65;;
63012;SDS011;62113;45.624;11.700;2023-02-15T01:05:19;76.82;;;43.08;;
63012;SDS011;62113;45.624;11.700;2023-02-15T01:07:44;90.28;;;42.70;;
63012;SDS011;62113;45.624;11.700;2023-02-15T01:10:10;81.82;;;41.42;;
63012;SDS011;62113;45.624;11.700;2023-02-15T01:12:35;80.97;;;39.83;;
63012;SDS011;62113;45.624;11.700;2023-02-15T01:15:01;83.07;;;41.85;;
63012;SDS011;62113;45.624;11.700;2023-02-15T01:17:27;83.45;;;41.58;;
63012;SDS011;62113;45.624;11.700;2023-02-15T01:19:52;83.22;;;42.78;;
63012;SDS011;62113;45.624;11.700;2023-02-15T01:22:18;83.68;;;41.03;;
63012;SDS011;62113;45.624;11.700;2023-02-15T01:24:44;78.05;;;41.83;;
63012;SDS011;62113;45.624;11.700;2023-02-15T01:27:10;79.85;;;39.78;;
63012;SDS011;62113;45.624;11.700;2023-02-15T01:29:35;76.63;;;41.97;;
63012;SDS011;62113;45.624;11.700;2023-02-15T01:32:01;75.70;;;40.13;;
63012;SDS011;62113;45.624;11.700;2023-02-15T01:34:28;77.03;;;41.67;;
63012;SDS011;62113;45.624;11.700;2023-02-15T01:36:54;78.65;;;41.55;;
63012;SDS011;62113;45.624;11.700;2023-02-15T01:39:20;75.05;;;39.50;;
63012;SDS011;62113;45.624;11.700;2023-02-15T01:41:45;73.68;;;40.22;;
63012;SDS011;62113;45.624;11.700;2023-02-15T01:47:31;72.53;;;38.08;;
63012;SDS011;62113;45.624;11.700;2023-02-15T01:52:39;68.05;;;37.75;;
63012;SDS011;62113;45.624;11.700;2023-02-15T01:55:09;74.78;;;39.40;;
63012;SDS011;62113;45.624;11.700;2023-02-15T01:57:37;74.90;;;38.00;;
63012;SDS011;62113;45.624;11.700;2023-02-15T02:00:04;71.38;;;38.97;;
63012;SDS011;62113;45.624;11.700;2023-02-15T02:02:32;72.80;;;38.25;;
63012;SDS011;62113;45.624;11.700;2023-02-15T02:05:00;68.15;;;36.63;;
63012;SDS011;62113;45.624;11.700;2023-02-15T02:07:41;72.47;;;37.20;;
63012;SDS011;62113;45.624;11.700;2023-02-15T02:10:10;77.63;;;38.65;;
63012;SDS011;62113;45.624;11.700;2023-02-15T02:12:38;63.55;;;36.72;;
63012;SDS011;62113;45.624;11.700;2023-02-15T02:15:07;75.05;;;38.40;;
63012;SDS011;62113;45.624;11.700;2023-02-15T02:31:19;86.55;;;36.47;;
63012;SDS011;62113;45.624;11.700;2023-02-15T02:34:24;70.63;;;36.72;;
63012;SDS011;62113;45.624;11.700;2023-02-15T02:39:54;69.55;;;37.35;;
63012;SDS011;62113;45.624;11.700;2023-02-15T02:45:22;65.93;;;35.10;;
63012;SDS011;62113;45.624;11.700;2023-02-15T02:48:09;72.57;;;35.58;;
63012;SDS011;62113;45.624;11.700;2023-02-15T02:50:46;69.55;;;35.42;;
63012;SDS011;62113;45.624;11.700;2023-02-15T02:53:12;67.93;;;36.45;;
63012;SDS011;62113;45.624;11.700;2023-02-15T02:58:22;65.45;;;34.25;;
63012;SDS011;62113;45.624;11.700;2023-02-15T03:08:41;68.53;;;35.65;;
63012;SDS011;62113;45.624;11.700;2023-02-15T03:11:10;68.25;;;35.67;;
63012;SDS011;62113;45.624;11.700;2023-02-15T03:13:36;64.85;;;35.00;;
63012;SDS011;62113;45.624;11.700;2023-02-15T03:16:02;65.38;;;33.15;;
63012;SDS011;62113;45.624;11.700;2023-02-15T03:18:51;60.47;;;35.42;;
63012;SDS011;62113;45.624;11.700;2023-02-15T03:21:24;72.35;;;35.92;;
63012;SDS011;62113;45.624;11.700;2023-02-15T03:24:05;73.80;;;35.38;;
63012;SDS011;62113;45.624;11.700;2023-02-15T03:26:38;61.10;;;33.53;;
63012;SDS011;62113;45.624;11.700;2023-02-15T03:29:06;75.15;;;35.00;;
63012;SDS011;62113;45.624;11.700;2023-02-15T03:31:35;77.22;;;36.38;;
63012;SDS011;62113;45.624;11.700;2023-02-15T03:34:06;62.35;;;35.65;;
63012;SDS011;62113;45.624;11.700;2023-02-15T03:36:44;76.47;;;35.72;;
63012;SDS011;62113;45.624;11.700;2023-02-15T03:39:20;68.18;;;34.20;;
63012;SDS011;62113;45.624;11.700;2023-02-15T03:41:49;78.43;;;37.63;;
63012;SDS011;62113;45.624;11.700;2023-02-15T03:44:23;71.07;;;34.63;;
63012;SDS011;62113;45.624;11.700;2023-02-15T03:47:09;68.15;;;34.50;;
63012;SDS011;62113;45.624;11.700;2023-02-15T03:49:52;66.90;;;34.97;;
63012;SDS011;62113;45.624;11.700;2023-02-15T03:52:21;70.22;;;35.47;;
63012;SDS011;62113;45.624;11.700;2023-02-15T03:54:49;63.83;;;33.65;;
63012;SDS011;62113;45.624;11.700;2023-02-15T03:57:17;68.40;;;35.53;;
63012;SDS011;62113;45.624;11.700;2023-02-15T04:00:21;72.32;;;35.35;;
63012;SDS011;62113;45.624;11.700;2023-02-15T04:05:45;65.95;;;33.10;;
63012;SDS011;62113;45.624;11.700;2023-02-15T04:08:11;66.05;;;34.45;;
63012;SDS011;62113;45.624;11.700;2023-02-15T04:10:37;69.82;;;32.22;;
63012;SDS011;62113;45.624;11.700;2023-02-15T04:13:30;64.05;;;34.28;;
63012;SDS011;62113;45.624;11.700;2023-02-15T04:15:57;61.55;;;32.33;;
63012;SDS011;62113;45.624;11.700;2023-02-15T04:18:32;60.20;;;33.10;;
63012;SDS011;62113;45.624;11.700;2023-02-15T04:21:21;67.15;;;34.97;;
63012;SDS011;62113;45.624;11.700;2023-02-15T04:24:07;62.65;;;32.20;;
63012;SDS011;62113;45.624;11.700;2023-02-15T04:26:52;62.60;;;31.50;;
63012;SDS011;62113;45.624;11.700;2023-02-15T04:29:18;64.72;;;33.53;;
63012;SDS011;62113;45.624;11.700;2023-02-15T04:31:47;64.32;;;30.88;;
63012;SDS011;62113;45.624;11.700;2023-02-15T04:34:13;60.92;;;32.03;;
63012;SDS011;62113;45.624;11.700;2023-02-15T04:36:40;61.20;;;33.35;;
63012;SDS011;62113;45.624;11.700;2023-02-15T04:39:06;64.68;;;32.53;;
63012;SDS011;62113;45.624;11.700;2023-02-15T04:41:32;62.60;;;32.40;;
63012;SDS011;62113;45.624;11.700;2023-02-15T04:43:58;62.50;;;32.40;;
63012;SDS011;62113;45.624;11.700;2023-02-15T04:46:25;59.45;;;31.30;;
63012;SDS011;62113;45.624;11.700;2023-02-15T04:48:52;67.82;;;33.55;;
63012;SDS011;62113;45.624;11.700;2023-02-15T04:51:18;64.67;;;33.10;;
63012;SDS011;62113;45.624;11.700;2023-02-15T04:53:44;60.60;;;31.70;;
63012;SDS011;62113;45.624;11.700;2023-02-15T04:56:09;58.60;;;32.22;;
63012;SDS011;62113;45.624;11.700;2023-02-15T04:58:35;63.53;;;32.22;;
63012;SDS011;62113;45.624;11.700;2023-02-15T05:01:02;61.13;;;31.67;;
63012;SDS011;62113;45.624;11.700;2023-02-15T05:03:27;58.15;;;32.15;;
63012;SDS011;62113;45.624;11.700;2023-02-15T05:05:53;62.25;;;31.58;;
63012;SDS011;62113;45.624;11.700;2023-02-15T05:08:19;65.70;;;33.50;;
63012;SDS011;62113;45.624;11.700;2023-02-15T05:10:44;59.95;;;32.47;;
63012;SDS011;62113;45.624;11.700;2023-02-15T05:13:13;54.70;;;30.23;;
63012;SDS011;62113;45.624;11.700;2023-02-15T05:15:39;51.72;;;29.23;;
63012;SDS011;62113;45.624;11.700;2023-02-15T05:18:04;54.65;;;30.52;;
63012;SDS011;62113;45.624;11.700;2023-02-15T05:20:31;60.20;;;33.55;;
63012;SDS011;62113;45.624;11.700;2023-02-15T05:22:57;68.95;;;32.97;;
63012;SDS011;62113;45.624;11.700;2023-02-15T05:25:22;64.50;;;31.70;;
63012;SDS011;62113;45.624;11.700;2023-02-15T05:28:10;59.58;;;32.00;;
63012;SDS011;62113;45.624;11.700;2023-02-15T05:30:48;59.35;;;31.48;;
63012;SDS011;62113;45.624;11.700;2023-02-15T05:33:15;63.65;;;32.55;;
63012;SDS011;62113;45.624;11.700;2023-02-15T05:35:40;69.18;;;32.47;;
63012;SDS011;62113;45.624;11.700;2023-02-15T05:38:06;62.70;;;32.72;;
63012;SDS011;62113;45.624;11.700;2023-02-15T05:40:32;68.28;;;34.00;;
63012;SDS011;62113;45.624;11.700;2023-02-15T05:42:57;66.93;;;33.13;;
63012;SDS011;62113;45.624;11.700;2023-02-15T05:45:23;69.97;;;33.10;;
63012;SDS011;62113;45.624;11.700;2023-02-15T05:47:49;62.03;;;32.25;;
63012;SDS011;62113;45.624;11.700;2023-02-15T05:50:15;67.15;;;32.95;;
63012;SDS011;62113;45.624;11.700;2023-02-15T05:52:40;71.78;;;37.17;;
63012;SDS011;62113;45.624;11.700;2023-02-15T05:55:06;62.72;;;34.05;;
63012;SDS011;62113;45.624;11.700;2023-02-15T05:57:33;69.13;;;35.88;;
63012;SDS011;62113;45.624;11.700;2023-02-15T06:00:00;63.97;;;33.37;;
63012;SDS011;62113;45.624;11.700;2023-02-15T06:02:26;68.78;;;34.67;;
63012;SDS011;62113;45.624;11.700;2023-02-15T06:04:51;72.40;;;36.65;;
63012;SDS011;62113;45.624;11.700;2023-02-15T06:07:17;67.65;;;36.75;;
63012;SDS011;62113;45.624;11.700;2023-02-15T06:09:43;66.70;;;36.35;;
63012;SDS011;62113;45.624;11.700;2023-02-15T06:12:08;63.53;;;35.05;;
63012;SDS011;62113;45.624;11.700;2023-02-15T06:14:34;67.47;;;33.45;;
63012;SDS011;62113;45.624;11.700;2023-02-15T06:16:59;66.65;;;36.67;;
63012;SDS011;62113;45.624;11.700;2023-02-15T06:19:25;87.60;;;42.80;;
63012;SDS011;62113;45.624;11.700;2023-02-15T06:21:50;71.95;;;37.38;;
63012;SDS011;62113;45.624;11.700;2023-02-15T06:24:16;70.35;;;36.50;;
63012;SDS011;62113;45.624;11.700;2023-02-15T06:26:42;76.57;;;37.45;;
63012;SDS011;62113;45.624;11.700;2023-02-15T06:29:07;66.70;;;36.13;;
63012;SDS011;62113;45.624;11.700;2023-02-15T06:31:33;73.10;;;37.45;;
63012;SDS011;62113;45.624;11.700;2023-02-15T06:33:58;87.50;;;42.85;;
63012;SDS011;62113;45.624;11.700;2023-02-15T06:36:28;120.68;;;55.75;;
63012;SDS011;62113;45.624;11.700;2023-02-15T06:38:54;115.97;;;56.50;;
63012;SDS011;62113;45.624;11.700;2023-02-15T06:41:20;116.40;;;57.80;;
63012;SDS011;62113;45.624;11.700;2023-02-15T06:43:46;133.30;;;61.55;;
63012;SDS011;62113;45.624;11.700;2023-02-15T06:46:12;119.85;;;59.38;;
63012;SDS011;62113;45.624;11.700;2023-02-15T06:48:38;125.35;;;58.33;;
63012;SDS011;62113;45.624;11.700;2023-02-15T06:51:03;110.10;;;56.28;;
63012;SDS011;62113;45.624;11.700;2023-02-15T06:53:29;122.18;;;54.20;;
63012;SDS011;62113;45.624;11.700;2023-02-15T06:56:05;123.35;;;54.20;;
63012;SDS011;62113;45.624;11.700;2023-02-15T06:58:33;115.70;;;55.97;;
63012;SDS011;62113;45.624;11.700;2023-02-15T07:01:06;108.15;;;54.42;;
63012;SDS011;62113;45.624;11.700;2023-02-15T07:03:33;91.38;;;46.47;;
63012;SDS011;62113;45.624;11.700;2023-02-15T07:06:00;91.63;;;49.17;;
63012;SDS011;62113;45.624;11.700;2023-02-15T07:08:27;98.00;;;47.90;;
63012;SDS011;62113;45.624;11.700;2023-02-15T07:10:54;94.53;;;47.42;;
63012;SDS011;62113;45.624;11.700;2023-02-15T07:13:40;103.05;;;48.30;;
63012;SDS011;62113;45.624;11.700;2023-02-15T07:18:33;84.60;;;46.53;;
63012;SDS011;62113;45.624;11.700;2023-02-15T07:20:59;85.93;;;44.67;;
63012;SDS011;62113;45.624;11.700;2023-02-15T07:23:24;98.07;;;48.67;;
63012;SDS011;62113;45.624;11.700;2023-02-15T07:25:56;109.90;;;53.47;;
63012;SDS011;62113;45.624;11.700;2023-02-15T07:28:22;100.57;;;52.10;;
63012;SDS011;62113;45.624;11.700;2023-02-15T07:30:48;100.38;;;50.30;;
63012;SDS011;62113;45.624;11.700;2023-02-15T07:33:13;80.85;;;43.72;;
63012;SDS011;62113;45.624;11.700;2023-02-15T07:35:51;82.03;;;42.80;;
63012;SDS011;62113;45.624;11.700;2023-02-15T07:38:19;88.60;;;38.95;;
63012;SDS011;62113;45.624;11.700;2023-02-15T07:40:45;78.97;;;37.33;;
63012;SDS011;62113;45.624;11.700;2023-02-15T07:43:12;70.90;;;34.75;;
63012;SDS011;62113;45.624;11.700;2023-02-15T07:45:38;67.20;;;36.38;;
63012;SDS011;62113;45.624;11.700;2023-02-15T07:48:04;78.33;;;39.00;;
63012;SDS011;62113;45.624;11.700;2023-02-15T07:50:30;83.63;;;41.47;;
63012;SDS011;62113;45.624;11.700;2023-02-15T07:52:57;74.72;;;39.70;;
63012;SDS011;62113;45.624;11.700;2023-02-15T07:55:22;81.50;;;41.83;;
63012;SDS011;62113;45.624;11.700;2023-02-15T07:57:50;82.80;;;45.30;;
63012;SDS011;62113;45.624;11.700;2023-02-15T08:00:16;82.32;;;43.88;;
63012;SDS011;62113;45.624;11.700;2023-02-15T08:02:48;78.32;;;41.30;;
63012;SDS011;62113;45.624;11.700;2023-02-15T08:05:34;71.30;;;41.67;;
63012;SDS011;62113;45.624;11.700;2023-02-15T08:08:00;74.00;;;40.80;;
63012;SDS011;62113;45.624;11.700;2023-02-15T08:10:25;77.77;;;37.87;;
63012;SDS011;62113;45.624;11.700;2023-02-15T08:13:11;70.63;;;35.73;;
63012;SDS011;62113;45.624;11.700;2023-02-15T08:15:37;65.70;;;36.33;;
63012;SDS011;62113;45.624;11.700;2023-02-15T08:18:02;71.50;;;36.07;;
63012;SDS011;62113;45.624;11.700;2023-02-15T08:20:28;65.37;;;35.83;;
63012;SDS011;62113;45.624;11.700;2023-02-15T08:22:53;66.33;;;34.90;;
63012;SDS011;62113;45.624;11.700;2023-02-15T08:25:19;61.00;;;34.77;;
63012;SDS011;62113;45.624;11.700;2023-02-15T08:27:44;66.93;;;35.07;;
63012;SDS011;62113;45.624;11.700;2023-02-15T08:30:10;68.30;;;36.93;;
63012;SDS011;62113;45.624;11.700;2023-02-15T08:32:36;72.28;;;37.70;;
63012;SDS011;62113;45.624;11.700;2023-02-15T08:35:02;62.97;;;34.53;;
63012;SDS011;62113;45.624;11.700;2023-02-15T08:37:28;69.03;;;34.67;;
63012;SDS011;62113;45.624;11.700;2023-02-15T08:39:53;251.27;;;147.40;;
63012;SDS011;62113;45.624;11.700;2023-02-15T08:42:19;86.30;;;40.80;;
63012;SDS011;62113;45.624;11.700;2023-02-15T08:44:45;75.22;;;36.30;;
63012;SDS011;62113;45.624;11.700;2023-02-15T08:47:11;64.90;;;35.47;;
63012;SDS011;62113;45.624;11.700;2023-02-15T08:49:37;63.80;;;36.73;;
63012;SDS011;62113;45.624;11.700;2023-02-15T08:52:02;65.63;;;35.27;;
63012;SDS011;62113;45.624;11.700;2023-02-15T08:54:28;66.97;;;35.87;;
63012;SDS011;62113;45.624;11.700;2023-02-15T08:56:54;74.57;;;37.67;;
63012;SDS011;62113;45.624;11.700;2023-02-15T08:59:20;56.63;;;32.90;;
63012;SDS011;62113;45.624;11.700;2023-02-15T09:01:47;57.97;;;36.72;;
63012;SDS011;62113;45.624;11.700;2023-02-15T09:04:14;59.67;;;36.30;;
63012;SDS011;62113;45.624;11.700;2023-02-15T09:06:41;60.17;;;39.03;;
63012;SDS011;62113;45.624;11.700;2023-02-15T09:09:09;61.08;;;35.05;;
63012;SDS011;62113;45.624;11.700;2023-02-15T09:11:37;65.20;;;33.88;;
63012;SDS011;62113;45.624;11.700;2023-02-15T09:14:05;63.03;;;33.63;;
63012;SDS011;62113;45.624;11.700;2023-02-15T09:16:34;69.63;;;32.78;;
63012;SDS011;62113;45.624;11.700;2023-02-15T09:19:02;63.20;;;31.48;;
63012;SDS011;62113;45.624;11.700;2023-02-15T09:21:35;72.22;;;32.63;;
63012;SDS011;62113;45.624;11.700;2023-02-15T09:24:03;52.15;;;32.78;;
63012;SDS011;62113;45.624;11.700;2023-02-15T09:26:31;48.40;;;28.90;;
63012;SDS011;62113;45.624;11.700;2023-02-15T09:28:59;49.83;;;26.67;;
63012;SDS011;62113;45.624;11.700;2023-02-15T09:31:27;45.75;;;23.33;;
63012;SDS011;62113;45.624;11.700;2023-02-15T09:33:54;42.83;;;23.95;;
63012;SDS011;62113;45.624;11.700;2023-02-15T09:36:21;47.72;;;23.77;;
63012;SDS011;62113;45.624;11.700;2023-02-15T09:39:12;40.93;;;22.27;;
63012;SDS011;62113;45.624;11.700;2023-02-15T09:47:52;44.20;;;25.60;;
63012;SDS011;62113;45.624;11.700;2023-02-15T09:50:43;48.13;;;26.15;;
63012;SDS011;62113;45.624;11.700;2023-02-15T09:56:15;41.75;;;24.00;;
63012;SDS011;62113;45.624;11.700;2023-02-15T09:58:52;44.20;;;26.48;;
63012;SDS011;62113;45.624;11.700;2023-02-15T10:15:57;46.95;;;29.15;;
63012;SDS011;62113;45.624;11.700;2023-02-15T10:18:43;45.88;;;28.30;;
63012;SDS011;62113;45.624;11.700;2023-02-15T10:21:46;50.92;;;28.33;;
63012;SDS011;62113;45.624;11.700;2023-02-15T10:27:26;42.33;;;25.95;;
63012;SDS011;62113;45.624;11.700;2023-02-15T10:30:02;46.83;;;25.02;;
63012;SDS011;62113;45.624;11.700;2023-02-15T10:32:58;46.08;;;26.80;;
63012;SDS011;62113;45.624;11.700;2023-02-15T10:35:29;43.90;;;27.20;;
63012;SDS011;62113;45.624;11.700;2023-02-15T10:38:19;55.65;;;28.00;;
63012;SDS011;62113;45.624;11.700;2023-02-15T10:52:33;54.50;;;29.27;;
63012;SDS011;62113;45.624;11.700;2023-02-15T10:55:23;45.92;;;28.35;;
63012;SDS011;62113;45.624;11.700;2023-02-15T11:03:17;49.40;;;28.42;;
63012;SDS011;62113;45.624;11.700;2023-02-15T11:08:37;45.28;;;26.02;;
63012;SDS011;62113;45.624;11.700;2023-02-15T11:11:19;48.63;;;27.27;;
63012;SDS011;62113;45.624;11.700;2023-02-15T11:13:53;47.95;;;26.45;;
63012;SDS011;62113;45.624;11.700;2023-02-15T11:16:24;50.58;;;27.38;;
63012;SDS011;62113;45.624;11.700;2023-02-15T11:18:56;43.17;;;25.75;;
63012;SDS011;62113;45.624;11.700;2023-02-15T11:21:44;45.47;;;26.17;;
63012;SDS011;62113;45.624;11.700;2023-02-15T11:24:16;47.55;;;26.83;;
63012;SDS011;62113;45.624;11.700;2023-02-15T11:29:33;47.97;;;27.65;;
63012;SDS011;62113;45.624;11.700;2023-02-15T11:32:19;47.50;;;24.75;;
63012;SDS011;62113;45.624;11.700;2023-02-15T11:34:53;48.63;;;26.15;;
63012;SDS011;62113;45.624;11.700;2023-02-15T11:37:21;53.88;;;27.40;;
63012;SDS011;62113;45.624;11.700;2023-02-15T11:39:55;48.25;;;26.30;;
63012;SDS011;62113;45.624;11.700;2023-02-15T11:42:21;49.78;;;27.35;;
63012;SDS011;62113;45.624;11.700;2023-02-15T11:47:16;48.70;;;26.97;;
63012;SDS011;62113;45.624;11.700;2023-02-15T11:49:41;49.20;;;25.43;;
63012;SDS011;62113;45.624;11.700;2023-02-15T11:52:10;51.60;;;26.57;;
63012;SDS011;62113;45.624;11.700;2023-02-15T11:54:45;52.25;;;26.38;;
63012;SDS011;62113;45.624;11.700;2023-02-15T11:57:19;46.92;;;26.83;;
63012;SDS011;62113;45.624;11.700;2023-02-15T12:00:10;48.30;;;26.13;;
63012;SDS011;62113;45.624;11.700;2023-02-15T12:02:38;51.20;;;25.35;;
63012;SDS011;62113;45.624;11.700;2023-02-15T12:05:21;46.65;;;24.33;;
63012;SDS011;62113;45.624;11.700;2023-02-15T12:07:52;49.15;;;25.67;;
63012;SDS011;62113;45.624;11.700;2023-02-15T12:10:28;41.38;;;24.50;;
63012;SDS011;62113;45.624;11.700;2023-02-15T12:13:19;48.88;;;25.40;;
63012;SDS011;62113;45.624;11.700;2023-02-15T12:15:46;42.13;;;23.10;;
63012;SDS011;62113;45.624;11.700;2023-02-15T12:20:58;43.70;;;25.42;;
63012;SDS011;62113;45.624;11.700;2023-02-15T12:23:27;45.05;;;23.52;;
63012;SDS011;62113;45.624;11.700;2023-02-15T12:25:54;43.05;;;24.23;;
63012;SDS011;62113;45.624;11.700;2023-02-15T12:28:34;40.42;;;23.67;;
63012;SDS011;62113;45.624;11.700;2023-02-15T12:31:03;46.20;;;25.40;;
63012;SDS011;62113;45.624;11.700;2023-02-15T12:33:44;43.45;;;23.83;;
63012;SDS011;62113;45.624;11.700;2023-02-15T12:36:12;55.53;;;24.60;;
63012;SDS011;62113;45.624;11.700;2023-02-15T12:41:31;42.53;;;22.90;;
63012;SDS011;62113;45.624;11.700;2023-02-15T12:44:09;41.00;;;22.67;;
63012;SDS011;62113;45.624;11.700;2023-02-15T12:49:24;45.35;;;24.08;;
63012;SDS011;62113;45.624;11.700;2023-02-15T12:51:51;43.33;;;23.00;;
63012;SDS011;62113;45.624;11.700;2023-02-15T12:56:57;43.40;;;23.27;;
63012;SDS011;62113;45.624;11.700;2023-02-15T12:59:23;49.00;;;24.30;;
63012;SDS011;62113;45.624;11.700;2023-02-15T13:01:49;42.63;;;23.67;;
63012;SDS011;62113;45.624;11.700;2023-02-15T13:04:25;46.67;;;24.55;;
63012;SDS011;62113;45.624;11.700;2023-02-15T13:06:57;44.38;;;22.38;;
63012;SDS011;62113;45.624;11.700;2023-02-15T13:12:20;42.10;;;22.58;;
63012;SDS011;62113;45.624;11.700;2023-02-15T13:14:49;43.08;;;24.42;;
63012;SDS011;62113;45.624;11.700;2023-02-15T13:17:21;44.10;;;24.40;;
63012;SDS011;62113;45.624;11.700;2023-02-15T13:19:54;45.22;;;24.42;;
63012;SDS011;62113;45.624;11.700;2023-02-15T13:22:38;43.35;;;24.27;;
63012;SDS011;62113;45.624;11.700;2023-02-15T13:25:26;44.47;;;25.25;;
63012;SDS011;62113;45.624;11.700;2023-02-15T13:28:00;45.15;;;24.73;;
63012;SDS011;62113;45.624;11.700;2023-02-15T13:30:30;46.33;;;25.80;;
63012;SDS011;62113;45.624;11.700;2023-02-15T13:33:03;52.30;;;25.65;;
63012;SDS011;62113;45.624;11.700;2023-02-15T13:35:51;51.40;;;26.30;;
63012;SDS011;62113;45.624;11.700;2023-02-15T13:41:32;46.17;;;26.63;;
63012;SDS011;62113;45.624;11.700;2023-02-15T13:47:15;52.40;;;26.95;;
63012;SDS011;62113;45.624;11.700;2023-02-15T13:50:00;53.17;;;29.25;;
63012;SDS011;62113;45.624;11.700;2023-02-15T13:52:55;53.50;;;29.83;;
63012;SDS011;62113;45.624;11.700;2023-02-15T13:55:31;53.70;;;30.33;;
63012;SDS011;62113;45.624;11.700;2023-02-15T14:31:28;52.97;;;32.00;;
63012;SDS011;62113;45.624;11.700;2023-02-15T14:33:59;57.47;;;33.08;;
63012;SDS011;62113;45.624;11.700;2023-02-15T14:36:24;67.67;;;32.83;;
63012;SDS011;62113;45.624;11.700;2023-02-15T14:42:10;61.70;;;31.40;;
63012;SDS011;62113;45.624;11.700;2023-02-15T14:44:51;58.15;;;30.23;;
63012;SDS011;62113;45.624;11.700;2023-02-15T14:47:36;55.63;;;31.08;;
63012;SDS011;62113;45.624;11.700;2023-02-15T14:58:30;59.63;;;29.80;;
63012;SDS011;62113;45.624;11.700;2023-02-15T15:01:02;53.80;;;31.23;;
63012;SDS011;62113;45.624;11.700;2023-02-15T15:03:31;56.70;;;30.27;;
63012;SDS011;62113;45.624;11.700;2023-02-15T15:05:57;57.85;;;30.92;;
63012;SDS011;62113;45.624;11.700;2023-02-15T15:08:28;65.93;;;30.17;;
63012;SDS011;62113;45.624;11.700;2023-02-15T15:10:58;60.03;;;29.77;;
63012;SDS011;62113;45.624;11.700;2023-02-15T15:13:59;56.35;;;29.88;;
63012;SDS011;62113;45.624;11.700;2023-02-15T15:19:12;54.10;;;29.27;;
63012;SDS011;62113;45.624;11.700;2023-02-15T15:22:22;54.72;;;28.73;;
63012;SDS011;62113;45.624;11.700;2023-02-15T15:24:50;59.00;;;28.17;;
63012;SDS011;62113;45.624;11.700;2023-02-15T15:35:19;53.53;;;29.10;;
63012;SDS011;62113;45.624;11.700;2023-02-15T15:48:55;58.25;;;28.85;;
63012;SDS011;62113;45.624;11.700;2023-02-15T15:51:33;61.95;;;28.50;;
63012;SDS011;62113;45.624;11.700;2023-02-15T15:56:28;64.20;;;28.10;;
63012;SDS011;62113;45.624;11.700;2023-02-15T15:59:02;57.47;;;27.70;;
63012;SDS011;62113;45.624;11.700;2023-02-15T16:01:37;73.13;;;28.45;;
63012;SDS011;62113;45.624;11.700;2023-02-15T16:04:10;59.70;;;29.65;;
63012;SDS011;62113;45.624;11.700;2023-02-15T16:06:38;60.53;;;29.00;;
63012;SDS011;62113;45.624;11.700;2023-02-15T16:09:21;56.47;;;29.05;;
63012;SDS011;62113;45.624;11.700;2023-02-15T16:11:58;63.60;;;31.23;;
63012;SDS011;62113;45.624;11.700;2023-02-15T16:14:35;66.65;;;30.13;;
63012;SDS011;62113;45.624;11.700;2023-02-15T16:17:07;66.85;;;30.60;;
63012;SDS011;62113;45.624;11.700;2023-02-15T16:19:40;71.13;;;28.95;;
63012;SDS011;62113;45.624;11.700;2023-02-15T16:22:11;63.53;;;28.55;;
63012;SDS011;62113;45.624;11.700;2023-02-15T16:35:30;67.43;;;29.52;;
63012;SDS011;62113;45.624;11.700;2023-02-15T16:37:56;62.47;;;27.88;;
63012;SDS011;62113;45.624;11.700;2023-02-15T16:42:54;60.53;;;29.00;;
63012;SDS011;62113;45.624;11.700;2023-02-15T16:45:22;62.95;;;31.30;;
63012;SDS011;62113;45.624;11.700;2023-02-15T16:47:52;73.55;;;32.28;;
63012;SDS011;62113;45.624;11.700;2023-02-15T16:50:34;74.00;;;30.75;;
63012;SDS011;62113;45.624;11.700;2023-02-15T16:53:02;75.82;;;31.83;;
63012;SDS011;62113;45.624;11.700;2023-02-15T16:55:34;75.53;;;32.45;;
63012;SDS011;62113;45.624;11.700;2023-02-15T16:58:04;67.05;;;31.70;;
63012;SDS011;62113;45.624;11.700;2023-02-15T17:00:33;66.25;;;33.20;;
63012;SDS011;62113;45.624;11.700;2023-02-15T17:03:03;70.18;;;33.05;;
63012;SDS011;62113;45.624;11.700;2023-02-15T17:08:15;72.72;;;34.20;;
63012;SDS011;62113;45.624;11.700;2023-02-15T17:10:46;73.00;;;34.50;;
63012;SDS011;62113;45.624;11.700;2023-02-15T17:14:10;76.70;;;34.08;;
63012;SDS011;62113;45.624;11.700;2023-02-15T17:16:45;65.47;;;32.22;;
63012;SDS011;62113;45.624;11.700;2023-02-15T17:19:18;74.10;;;33.38;;
63012;SDS011;62113;45.624;11.700;2023-02-15T17:21:59;73.97;;;33.75;;
63012;SDS011;62113;45.624;11.700;2023-02-15T17:24:32;66.25;;;31.65;;
63012;SDS011;62113;45.624;11.700;2023-02-15T17:27:02;73.32;;;32.92;;
63012;SDS011;62113;45.624;11.700;2023-02-15T17:29:39;74.70;;;31.40;;
63012;SDS011;62113;45.624;11.700;2023-02-15T17:32:12;64.38;;;29.65;;
63012;SDS011;62113;45.624;11.700;2023-02-15T17:35:25;79.88;;;33.95;;
63012;SDS011;62113;45.624;11.700;2023-02-15T17:37:42;66.57;;;31.33;;
63012;SDS011;62113;45.624;11.700;2023-02-15T17:40:21;73.65;;;32.72;;
63012;SDS011;62113;45.624;11.700;2023-02-15T17:42:52;67.75;;;32.30;;
63012;SDS011;62113;45.624;11.700;2023-02-15T17:45:18;69.40;;;33.47;;
63012;SDS011;62113;45.624;11.700;2023-02-15T17:47:44;77.47;;;33.83;;
63012;SDS011;62113;45.624;11.700;2023-02-15T17:50:19;68.72;;;32.17;;
63012;SDS011;62113;45.624;11.700;2023-02-15T17:52:47;68.30;;;32.20;;
63012;SDS011;62113;45.624;11.700;2023-02-15T17:55:13;64.15;;;32.97;;
63012;SDS011;62113;45.624;11.700;2023-02-15T17:57:59;70.53;;;32.63;;